Time;durP1;ratioP1;P1;durP2;ratioP2;P2;SDS_P1;SDS_P2;PMS_P1;PMS_P2;Temp;Humidity;BMP_temperature;BMP_pressure;BME280_temperature;BME280_humidity;BME280_pressure;Samples;Min_cycle;Max_cycle;Signal;HPM_P1;HPM_P2
2022/07/10 04:01:25;;;;;;;2.97;0.67;;;18.50;85.60;;;;;;5995654;23;89219;31
2022/07/10 04:03:50;;;;;;;2.00;0.55;;;18.40;85.30;;;;;;4799019;29;89330;-73
2022/07/10 04:06:16;;;;;;;3.95;0.70;;;18.50;85.30;;;;;;4802742;29;87705;-75
2022/07/10 04:08:42;;;;;;;2.42;0.82;;;18.50;85.70;;;;;;4802946;29;87431;-74
2022/07/10 04:11:07;;;;;;;4.15;0.73;;;18.50;85.50;;;;;;4802076;29;87682;-75
2022/07/10 04:13:33;;;;;;;2.75;0.82;;;18.50;85.80;;;;;;4802226;29;89631;-74
2022/07/10 04:15:59;;;;;;;3.42;0.82;;;18.50;85.50;;;;;;4802494;29;88356;-74
2022/07/10 04:18:24;;;;;;;3.78;1.00;;;18.50;85.80;;;;;;4801843;29;87204;-73
2022/07/10 04:20:50;;;;;;;3.08;1.02;;;18.50;85.90;;;;;;4803908;29;87453;-75
2022/07/10 04:23:16;;;;;;;6.38;1.02;;;18.60;86.00;;;;;;4804335;29;87935;-75
2022/07/10 04:25:41;;;;;;;3.50;0.95;;;18.60;86.10;;;;;;4806070;29;87986;-76
2022/07/10 04:28:07;;;;;;;3.00;0.85;;;18.60;86.30;;;;;;4804662;29;87726;-75
2022/07/10 04:30:33;;;;;;;2.88;0.82;;;18.60;87.10;;;;;;4806455;29;86832;-74
2022/07/10 04:32:58;;;;;;;2.35;1.02;;;18.50;87.40;;;;;;4805467;29;87713;-76
2022/07/10 04:35:24;;;;;;;3.13;1.15;;;18.50;87.10;;;;;;4804525;29;87416;-75
2022/07/10 04:37:50;;;;;;;3.08;0.80;;;18.60;87.10;;;;;;4806091;29;89750;-75
2022/07/10 04:40:15;;;;;;;3.10;1.05;;;18.70;88.20;;;;;;4805192;29;87630;-76
2022/07/10 04:42:41;;;;;;;2.58;1.00;;;18.70;87.00;;;;;;4803417;29;88576;-75
2022/07/10 04:45:07;;;;;;;2.58;0.88;;;18.70;87.10;;;;;;4804847;29;88063;-75
2022/07/10 04:47:33;;;;;;;3.10;0.80;;;18.80;87.00;;;;;;4804863;29;88307;-75
2022/07/10 04:49:59;;;;;;;3.42;1.23;;;19.10;85.70;;;;;;4806739;29;87418;-75
2022/07/10 04:52:25;;;;;;;3.05;1.02;;;19.20;85.90;;;;;;4806899;29;87939;-76
2022/07/10 04:54:50;;;;;;;3.70;1.10;;;19.10;85.60;;;;;;4806427;29;86975;-75
2022/07/10 04:57:16;;;;;;;5.25;1.15;;;19.20;85.80;;;;;;4805177;29;87297;-76
2022/07/10 04:59:42;;;;;;;2.55;1.00;;;19.30;85.00;;;;;;4807372;29;87622;-76
2022/07/10 05:02:08;;;;;;;4.47;1.05;;;19.30;85.20;;;;;;4810337;29;89733;-77
2022/07/10 05:04:34;;;;;;;4.18;0.82;;;19.10;86.40;;;;;;4822507;29;89550;-74
2022/07/10 05:06:59;;;;;;;2.22;0.90;;;19.00;86.20;;;;;;4823386;29;88145;-74
2022/07/10 05:09:25;;;;;;;3.05;0.98;;;19.10;86.50;;;;;;4820565;29;87442;-75
2022/07/10 05:11:51;;;;;;;2.33;1.13;;;19.10;86.70;;;;;;4822819;29;88360;-75
2022/07/10 05:14:17;;;;;;;6.53;1.73;;;18.80;88.90;;;;;;4824474;29;88950;-75
2022/07/10 05:16:43;;;;;;;3.20;0.93;;;18.70;89.30;;;;;;4819235;29;87594;-74
2022/07/10 05:19:08;;;;;;;4.47;1.20;;;18.70;88.60;;;;;;4822006;29;87064;-73
2022/07/10 05:21:34;;;;;;;3.30;1.42;;;18.60;89.40;;;;;;4820111;29;88222;-75
2022/07/10 05:24:00;;;;;;;2.97;1.10;;;18.60;90.00;;;;;;4820543;29;87867;-72
2022/07/10 05:26:25;;;;;;;3.40;1.23;;;18.40;90.10;;;;;;4816178;29;88760;-74
2022/07/10 05:28:51;;;;;;;3.05;1.20;;;18.40;90.30;;;;;;4820877;29;87659;-74
2022/07/10 05:31:17;;;;;;;2.42;1.08;;;18.40;90.40;;;;;;4817558;29;87741;-74
2022/07/10 05:33:43;;;;;;;3.42;1.15;;;18.30;90.20;;;;;;4819580;28;87629;-74
2022/07/10 05:36:08;;;;;;;2.33;1.02;;;18.30;90.20;;;;;;4819169;29;87571;-75
2022/07/10 05:38:34;;;;;;;3.05;1.33;;;18.30;89.30;;;;;;4820388;29;88095;-75
2022/07/10 05:41:00;;;;;;;3.63;0.90;;;18.30;89.00;;;;;;4818851;29;87624;-74
2022/07/10 05:43:26;;;;;;;3.22;1.20;;;18.20;89.20;;;;;;4825494;29;87078;-73
2022/07/10 05:45:51;;;;;;;2.70;1.10;;;18.20;89.40;;;;;;4823924;29;87433;-74
2022/07/10 05:48:17;;;;;;;3.13;1.10;;;18.30;89.80;;;;;;4822316;29;88011;-75
2022/07/10 05:50:43;;;;;;;4.10;1.02;;;18.30;89.10;;;;;;4820164;29;88538;-75
2022/07/10 05:53:08;;;;;;;2.58;1.08;;;18.40;89.00;;;;;;4822845;28;88974;-75
2022/07/10 05:55:34;;;;;;;3.38;1.00;;;18.50;88.30;;;;;;4822024;29;87662;-75
2022/07/10 05:58:00;;;;;;;2.35;1.13;;;18.30;89.40;;;;;;4822232;29;87092;-74
2022/07/10 06:00:25;;;;;;;2.83;1.00;;;18.20;89.80;;;;;;4818704;29;87334;-75
2022/07/10 06:02:51;;;;;;;3.00;1.20;;;18.20;90.00;;;;;;4820756;29;87618;-74
2022/07/10 06:05:17;;;;;;;4.60;1.35;;;18.30;90.00;;;;;;4823433;29;87675;-73
2022/07/10 06:07:42;;;;;;;2.47;1.08;;;18.30;89.60;;;;;;4823285;29;86993;-73
2022/07/10 06:10:08;;;;;;;2.47;0.93;;;18.20;90.00;;;;;;4824519;29;87618;-75
2022/07/10 06:12:34;;;;;;;3.35;0.98;;;18.20;89.80;;;;;;4817536;29;87642;-75
2022/07/10 06:15:00;;;;;;;4.15;1.08;;;18.20;90.40;;;;;;4821784;29;88155;-73
2022/07/10 06:17:26;;;;;;;2.78;1.05;;;18.00;91.10;;;;;;4822873;29;87658;-74
2022/07/10 06:19:51;;;;;;;3.97;1.20;;;18.00;91.30;;;;;;4822023;29;87637;-74
2022/07/10 06:22:32;;;;;;;2.13;1.13;;;18.00;91.20;;;;;;4822041;29;87754;-75
2022/07/10 06:25:06;;;;;;;2.25;1.05;;;18.10;90.80;;;;;;4822566;29;87690;-74
2022/07/10 06:27:32;;;;;;;2.55;1.05;;;18.20;90.70;;;;;;4823009;29;87513;-74
2022/07/10 06:29:58;;;;;;;3.00;1.00;;;18.30;90.60;;;;;;4822242;28;87788;-75
2022/07/10 06:32:25;;;;;;;3.10;1.33;;;18.50;90.70;;;;;;4823410;28;86964;-76
2022/07/10 06:34:54;;;;;;;2.88;1.00;;;18.60;91.40;;;;;;4824574;28;87783;-76
2022/07/10 06:37:20;;;;;;;3.05;1.17;;;18.60;91.30;;;;;;4827240;28;87673;-75
2022/07/10 06:39:49;;;;;;;3.47;1.35;;;18.70;90.90;;;;;;4827589;28;88512;-75
2022/07/10 06:42:16;;;;;;;4.45;1.42;;;18.90;90.30;;;;;;4822670;28;87299;-74
2022/07/10 06:44:42;;;;;;;2.63;1.38;;;19.10;90.00;;;;;;4821542;28;87886;-75
2022/07/10 06:49:54;;;;;;;3.20;1.35;;;19.50;87.80;;;;;;4826172;28;87509;-73
2022/07/10 06:52:20;;;;;;;4.57;1.40;;;19.70;85.10;;;;;;4818371;28;87760;-76
2022/07/10 06:54:46;;;;;;;4.03;1.55;;;19.90;84.60;;;;;;4823682;28;87606;-74
2022/07/10 06:57:12;;;;;;;4.22;1.35;;;19.90;83.20;;;;;;4821700;28;87238;-75
2022/07/10 06:59:38;;;;;;;3.65;1.35;;;20.10;81.70;;;;;;4822940;28;89232;-74
2022/07/10 07:02:04;;;;;;;2.88;1.08;;;20.10;80.90;;;;;;4823262;28;88041;-75
2022/07/10 07:04:30;;;;;;;8.05;1.25;;;20.10;79.50;;;;;;4822270;28;88431;-74
2022/07/10 07:06:56;;;;;;;4.78;1.23;;;20.20;79.20;;;;;;4823347;28;87414;-74
2022/07/10 07:09:22;;;;;;;5.30;1.20;;;20.40;79.60;;;;;;4821421;28;87581;-75
2022/07/10 07:11:47;;;;;;;2.90;1.13;;;20.60;78.60;;;;;;4826030;28;87544;-76
2022/07/10 07:14:13;;;;;;;3.78;1.58;;;20.50;78.60;;;;;;4834311;28;87522;-75
2022/07/10 07:16:42;;;;;;;3.55;1.67;;;20.20;78.80;;;;;;4824119;28;87831;-76
2022/07/10 07:19:11;;;;;;;3.28;1.30;;;20.20;77.80;;;;;;4832303;28;87728;-75
2022/07/10 07:24:22;;;;;;;3.17;1.20;;;20.40;77.20;;;;;;4823780;28;87030;-74
2022/07/10 07:26:48;;;;;;;5.57;1.17;;;20.50;77.30;;;;;;4823838;28;87734;-76
2022/07/10 07:29:15;;;;;;;3.63;1.90;;;20.70;76.30;;;;;;4837525;28;89291;-75
2022/07/10 07:31:40;;;;;;;4.20;1.48;;;20.40;77.10;;;;;;4828522;28;87281;-76
2022/07/10 07:34:06;;;;;;;2.13;1.02;;;20.40;76.50;;;;;;4826723;28;87610;-75
2022/07/10 07:36:32;;;;;;;3.22;1.30;;;20.70;75.80;;;;;;4830475;28;87487;-76
2022/07/10 07:38:58;;;;;;;3.22;1.45;;;21.10;75.70;;;;;;4823974;28;87339;-78
2022/07/10 07:41:24;;;;;;;5.07;1.73;;;21.20;74.70;;;;;;4823500;28;87832;-76
2022/07/10 07:43:50;;;;;;;3.53;1.70;;;21.40;74.10;;;;;;4826172;28;88047;-76
2022/07/10 07:46:16;;;;;;;4.63;1.73;;;21.60;75.10;;;;;;4823367;28;86860;-74
2022/07/10 07:48:42;;;;;;;3.88;2.10;;;22.10;71.90;;;;;;4822125;28;87890;-75
2022/07/10 07:51:07;;;;;;;4.20;1.65;;;22.00;72.30;;;;;;4822723;28;87499;-77
2022/07/10 07:53:33;;;;;;;4.45;1.27;;;22.10;70.60;;;;;;4822715;28;88400;-76
2022/07/10 07:55:59;;;;;;;3.40;1.33;;;22.20;69.30;;;;;;4827759;28;87645;-75
2022/07/10 07:58:25;;;;;;;4.60;1.50;;;22.30;70.60;;;;;;4830824;28;88353;-76
2022/07/10 08:00:51;;;;;;;4.35;1.98;;;22.30;70.40;;;;;;4830382;28;87708;-79
2022/07/10 08:03:16;;;;;;;1.92;1.17;;;22.30;70.50;;;;;;4837305;28;87570;-76
2022/07/10 08:05:42;;;;;;;3.28;1.83;;;22.20;70.20;;;;;;4839408;28;87746;-75
2022/07/10 08:08:09;;;;;;;4.60;1.50;;;22.20;71.70;;;;;;4832322;28;87897;-77
2022/07/10 08:10:36;;;;;;;2.90;1.40;;;22.70;70.20;;;;;;4834708;28;88939;-76
2022/07/10 08:13:03;;;;;;;5.40;1.92;;;23.40;66.90;;;;;;4831651;28;87827;-76
2022/07/10 08:15:29;;;;;;;5.47;1.63;;;23.60;66.70;;;;;;4830148;28;87313;-76
2022/07/10 08:17:57;;;;;;;3.38;1.58;;;23.70;66.80;;;;;;4835667;28;89016;-77
2022/07/10 08:20:25;;;;;;;3.80;1.75;;;24.30;66.40;;;;;;4833725;28;88146;-77
2022/07/10 08:22:55;;;;;;;3.22;1.38;;;24.80;64.90;;;;;;4830215;28;87290;-77
2022/07/10 08:25:21;;;;;;;2.63;1.52;;;25.40;62.80;;;;;;4839463;28;87416;-78
2022/07/10 08:27:47;;;;;;;3.33;1.42;;;25.30;60.70;;;;;;4830659;28;87905;-75
2022/07/10 08:30:13;;;;;;;4.32;1.60;;;24.80;60.80;;;;;;4828561;28;87782;-75
2022/07/10 08:32:39;;;;;;;3.35;1.48;;;24.20;62.60;;;;;;4824927;28;87574;-74
2022/07/10 08:35:06;;;;;;;3.20;1.65;;;23.30;65.30;;;;;;4832776;28;87021;-76
2022/07/10 08:37:42;;;;;;;3.33;2.03;;;23.10;65.70;;;;;;4828847;28;89272;-74
2022/07/10 08:40:12;;;;;;;3.05;1.48;;;22.60;66.70;;;;;;4830372;28;87718;-77
2022/07/10 08:42:39;;;;;;;4.07;1.98;;;22.50;68.70;;;;;;4827975;28;88942;-77
2022/07/10 08:45:06;;;;;;;4.50;1.80;;;22.60;68.70;;;;;;4828846;28;87360;-74
2022/07/10 08:47:35;;;;;;;4.07;1.60;;;22.70;68.40;;;;;;4828511;28;87946;-75
2022/07/10 08:50:02;;;;;;;3.72;1.92;;;22.70;67.50;;;;;;4839172;28;88640;-76
2022/07/10 08:53:12;;;;;;;5.70;1.88;;;22.70;67.90;;;;;;4829608;28;87735;-72
2022/07/10 08:55:38;;;;;;;2.70;1.85;;;22.90;68.30;;;;;;4863122;28;86645;-70
2022/07/10 08:58:05;;;;;;;4.60;1.67;;;23.00;65.80;;;;;;4868348;28;87406;-74
2022/07/10 09:00:31;;;;;;;3.17;1.50;;;23.00;68.20;;;;;;4864284;28;86353;-71
2022/07/10 09:02:57;;;;;;;3.83;1.67;;;23.40;66.70;;;;;;4861347;28;87099;-72
2022/07/10 09:05:26;;;;;;;2.35;1.27;;;23.70;65.20;;;;;;4865943;29;87257;-72
2022/07/10 09:07:53;;;;;;;2.20;1.17;;;23.90;63.00;;;;;;4862264;29;88100;-70
2022/07/10 09:10:21;;;;;;;4.43;1.55;;;25.20;60.10;;;;;;4860087;29;87882;-74
2022/07/10 09:12:51;;;;;;;2.80;1.63;;;26.80;57.90;;;;;;4856407;29;87005;-74
2022/07/10 09:15:18;;;;;;;5.93;1.48;;;27.10;56.10;;;;;;4863436;29;87212;-74
2022/07/10 09:17:58;;;;;;;2.90;1.40;;;26.70;55.40;;;;;;4855242;29;87282;-76
2022/07/10 09:20:34;;;;;;;6.43;1.35;;;26.70;55.20;;;;;;4861419;29;86977;-73
2022/07/10 09:23:16;;;;;;;4.80;1.60;;;26.70;55.60;;;;;;4863741;29;87507;-74
2022/07/10 09:25:41;;;;;;;;;;;26.30;56.30;;;;;;4864121;28;86512;-72
2022/07/10 09:28:07;;;;;;;4.10;1.45;;;25.80;56.60;;;;;;4862317;28;87035;-74
2022/07/10 09:30:38;;;;;;;3.55;1.55;;;25.30;58.50;;;;;;4861807;28;87467;-74
2022/07/10 09:33:26;;;;;;;2.28;1.38;;;25.30;56.70;;;;;;4869540;28;88386;-74
2022/07/10 09:36:04;;;;;;;2.65;1.52;;;25.10;58.10;;;;;;4856824;28;87058;-75
2022/07/10 09:38:42;;;;;;;2.38;1.02;;;25.00;58.70;;;;;;4856303;29;88076;-75
2022/07/10 09:41:21;;;;;;;5.03;1.13;;;25.20;58.80;;;;;;4863204;29;87726;-74
2022/07/10 09:43:52;;;;;;;3.15;1.48;;;25.10;58.70;;;;;;4863878;29;86942;-74
2022/07/10 09:46:21;;;;;;;2.67;1.40;;;25.20;56.90;;;;;;4864248;29;87087;-73
2022/07/10 09:48:47;;;;;;;2.63;1.50;;;25.30;58.00;;;;;;4862315;29;88156;-76
2022/07/10 09:51:13;;;;;;;2.38;1.23;;;25.60;56.70;;;;;;4864353;29;86993;-74
2022/07/10 09:53:43;;;;;;;3.28;1.35;;;26.40;56.10;;;;;;4863662;29;86978;-73
2022/07/10 09:56:12;;;;;;;2.80;1.70;;;27.50;54.40;;;;;;4856206;29;87068;-74
2022/07/10 09:58:39;;;;;;;2.83;1.23;;;27.80;53.60;;;;;;4862225;29;89121;-75
2022/07/10 10:01:06;;;;;;;3.90;1.42;;;28.80;53.40;;;;;;4862271;29;87896;-74
2022/07/10 10:03:37;;;;;;;2.95;1.45;;;31.20;47.80;;;;;;4862222;29;86941;-73
2022/07/10 10:06:04;;;;;;;4.72;1.38;;;30.90;48.20;;;;;;4862231;29;87178;-73
2022/07/10 10:08:42;;;;;;;1.92;1.45;;;31.40;45.90;;;;;;4866808;28;87315;-78
2022/07/10 10:11:13;;;;;;;2.50;1.35;;;32.80;45.30;;;;;;4861851;28;87249;-73
2022/07/10 10:13:39;;;;;;;2.63;1.90;;;33.30;41.70;;;;;;4863856;28;87190;-74
2022/07/10 10:16:08;;;;;;;4.22;1.60;;;31.40;46.50;;;;;;4862694;28;86601;-73
2022/07/10 10:18:36;;;;;;;4.10;1.55;;;31.20;45.40;;;;;;4859140;29;88410;-73
2022/07/10 10:21:06;;;;;;;2.75;1.52;;;29.60;47.80;;;;;;4858334;28;87905;-74
2022/07/10 10:23:34;;;;;;;2.42;1.30;;;29.30;48.00;;;;;;4861104;28;87986;-72
2022/07/10 10:25:59;;;;;;;3.40;1.70;;;28.60;47.60;;;;;;4867116;28;87646;-76
2022/07/10 10:28:26;;;;;;;2.83;1.33;;;27.50;50.50;;;;;;4863743;28;87181;-75
2022/07/10 10:30:58;;;;;;;2.40;1.63;;;27.20;51.30;;;;;;4865298;28;87978;-76
2022/07/10 10:33:37;;;;;;;2.40;1.30;;;27.10;52.20;;;;;;4861494;29;87282;-72
2022/07/10 10:36:05;;;;;;;3.17;1.48;;;26.60;53.50;;;;;;4854024;28;86985;-72
2022/07/10 10:38:54;;;;;;;3.40;1.00;;;27.00;54.40;;;;;;4865516;28;87410;-73
2022/07/10 10:41:23;;;;;;;2.88;1.15;;;27.50;54.00;;;;;;4871258;28;87631;-74
2022/07/10 10:44:07;;;;;;;5.60;1.27;;;27.90;50.30;;;;;;4871651;28;87374;-75
2022/07/10 10:46:34;;;;;;;4.88;1.30;;;27.70;53.00;;;;;;4861252;28;87336;-74
2022/07/10 10:49:07;;;;;;;4.47;1.63;;;27.40;54.20;;;;;;4863115;28;88065;-75
2022/07/10 10:52:03;;;;;;;4.60;1.73;;;27.60;51.90;;;;;;4863471;28;88158;-72
2022/07/10 10:54:31;;;;;;;2.15;1.73;;;26.60;52.30;;;;;;4862606;28;86520;-76
2022/07/10 10:57:12;;;;;;;4.72;1.30;;;26.60;55.00;;;;;;4869168;28;87208;-73
2022/07/10 10:59:48;;;;;;;2.25;0.95;;;26.60;55.60;;;;;;4870054;28;87279;-74
2022/07/10 11:02:40;;;;;;;2.92;1.20;;;26.60;56.10;;;;;;4873237;28;87017;-72
2022/07/10 11:05:18;;;;;;;3.58;1.27;;;27.30;55.40;;;;;;4861112;28;87364;-73
2022/07/10 11:07:55;;;;;;;4.07;1.52;;;27.70;55.00;;;;;;4866496;28;86257;-76
2022/07/10 11:10:32;;;;;;;5.45;1.67;;;27.40;53.40;;;;;;4860968;28;87461;-75
2022/07/10 11:12:59;;;;;;;2.25;1.15;;;26.60;55.90;;;;;;4857242;29;89352;-72
2022/07/10 11:15:26;;;;;;;2.38;1.17;;;26.50;56.20;;;;;;4856903;29;88188;-72
2022/07/10 11:17:53;;;;;;;3.10;1.20;;;26.20;56.20;;;;;;4862151;29;87742;-75
2022/07/10 11:20:20;;;;;;;3.47;1.63;;;26.10;55.80;;;;;;4869379;28;87573;-73
2022/07/10 11:22:47;;;;;;;2.35;1.25;;;25.70;59.90;;;;;;4864778;28;87501;-73
2022/07/10 11:25:34;;;;;;;2.75;1.30;;;25.50;58.30;;;;;;4867143;28;86851;-73
2022/07/10 11:28:14;;;;;;;2.40;1.30;;;25.40;58.20;;;;;;4862310;28;86937;-73
2022/07/10 11:30:54;;;;;;;2.85;1.20;;;25.80;57.20;;;;;;4865650;28;87103;-74
2022/07/10 11:33:21;;;;;;;4.28;1.40;;;26.00;56.90;;;;;;4857197;29;87356;-74
2022/07/10 11:35:50;;;;;;;2.58;1.15;;;25.90;53.40;;;;;;4864781;28;86969;-74
2022/07/10 11:38:20;;;;;;;2.20;1.40;;;25.60;56.30;;;;;;4865476;28;86989;-76
2022/07/10 11:40:46;;;;;;;2.03;1.17;;;25.60;56.40;;;;;;4867014;28;90135;-73
2022/07/10 11:43:16;;;;;;;2.80;0.93;;;25.50;56.90;;;;;;4856141;28;89130;-72
2022/07/10 11:45:43;;;;;;;2.03;0.90;;;25.40;57.50;;;;;;4871290;28;86671;-72
2022/07/10 11:48:17;;;;;;;2.92;1.60;;;25.40;55.10;;;;;;4868450;28;87415;-74
2022/07/10 11:50:44;;;;;;;1.58;0.70;;;25.20;56.00;;;;;;4865380;28;87019;-72
2022/07/10 11:53:10;;;;;;;3.90;1.05;;;25.10;58.20;;;;;;4863209;29;87161;-74
2022/07/10 11:55:40;;;;;;;3.97;1.08;;;25.40;57.10;;;;;;4865478;28;87086;-74
2022/07/10 11:58:16;;;;;;;2.10;0.60;;;25.60;57.30;;;;;;4866564;28;86106;-77
2022/07/10 12:00:42;;;;;;;3.17;0.82;;;25.80;56.60;;;;;;4863633;28;89057;-72
2022/07/10 12:03:21;;;;;;;2.75;0.70;;;25.70;56.30;;;;;;4866278;28;87968;-75
2022/07/10 12:05:50;;;;;;;3.65;0.90;;;25.40;55.50;;;;;;4867789;28;87823;-73
2022/07/10 12:08:16;;;;;;;1.48;0.88;;;25.10;54.50;;;;;;4870297;28;87028;-73
2022/07/10 12:10:42;;;;;;;1.50;0.88;;;24.90;54.70;;;;;;4861189;28;88526;-73
2022/07/10 12:13:13;;;;;;;1.92;1.00;;;24.90;55.40;;;;;;4859166;29;87544;-75
2022/07/10 12:15:41;;;;;;;4.05;0.73;;;24.60;56.50;;;;;;4863062;28;87392;-74
2022/07/10 12:18:20;;;;;;;2.55;0.82;;;24.70;58.90;;;;;;4865077;28;86900;-73
2022/07/10 12:20:47;;;;;;;1.92;0.70;;;24.60;55.40;;;;;;4867950;28;87711;-72
2022/07/10 12:23:17;;;;;;;2.00;1.08;;;24.50;57.20;;;;;;4869345;28;86540;-72
2022/07/10 12:25:44;;;;;;;3.95;1.10;;;24.60;55.30;;;;;;4857099;29;86926;-71
2022/07/10 12:28:09;;;;;;;1.88;1.05;;;24.70;56.70;;;;;;4853568;28;86927;-73
2022/07/10 12:30:46;;;;;;;3.38;0.65;;;24.70;53.80;;;;;;4867706;28;88505;-72
2022/07/10 12:33:17;;;;;;;1.42;0.82;;;24.70;56.10;;;;;;4869913;28;88262;-71
2022/07/10 12:36:00;;;;;;;1.85;0.77;;;24.70;56.30;;;;;;4855078;28;86977;-74
2022/07/10 12:38:33;;;;;;;1.20;0.60;;;24.60;56.40;;;;;;4867202;28;87437;-73
2022/07/10 12:41:13;;;;;;;1.70;0.88;;;24.80;55.20;;;;;;4859071;28;88361;-72
2022/07/10 12:43:39;;;;;;;1.77;0.80;;;24.70;53.80;;;;;;4862111;28;88510;-63
2022/07/10 12:46:19;;;;;;;2.85;1.48;;;24.50;54.30;;;;;;4863576;28;87151;-62
2022/07/10 12:49:02;;;;;;;2.03;0.88;;;24.30;54.60;;;;;;4862195;28;86617;-62
2022/07/10 12:51:31;;;;;;;2.08;0.65;;;24.20;57.70;;;;;;4863351;28;89562;-63
2022/07/10 12:53:57;;;;;;;2.20;0.93;;;24.10;58.20;;;;;;4861450;28;89274;-63
2022/07/10 12:56:37;;;;;;;3.72;0.75;;;24.20;55.90;;;;;;4861632;28;88516;-62
2022/07/10 12:59:14;;;;;;;2.85;0.80;;;24.30;55.20;;;;;;4862639;28;87156;-65
2022/07/10 13:01:45;;;;;;;1.73;0.90;;;24.20;55.90;;;;;;4861560;28;89750;-64
2022/07/10 13:04:11;;;;;;;3.72;0.70;;;24.20;57.60;;;;;;4858605;28;89219;-65
2022/07/10 13:06:39;;;;;;;1.88;0.93;;;24.30;57.00;;;;;;4857449;28;87149;-65
2022/07/10 13:09:24;;;;;;;2.85;0.90;;;24.10;56.00;;;;;;4861903;28;87295;-66
2022/07/10 13:11:51;;;;;;;2.50;0.93;;;24.10;56.40;;;;;;4861618;28;88161;-66
2022/07/10 13:14:18;;;;;;;1.55;0.57;;;24.00;55.70;;;;;;4869072;28;87809;-65
2022/07/10 13:16:44;;;;;;;3.25;0.80;;;24.00;57.70;;;;;;4856228;28;87055;-70
2022/07/10 13:19:10;;;;;;;1.77;0.65;;;24.10;59.90;;;;;;4862750;28;87072;-65
2022/07/10 13:21:36;;;;;;;1.23;0.68;;;24.10;58.80;;;;;;4856931;29;89144;-68
2022/07/10 13:24:03;;;;;;;5.28;1.30;;;24.40;54.60;;;;;;4856888;29;89778;-66
2022/07/10 13:26:30;;;;;;;6.07;0.73;;;24.20;57.20;;;;;;4850220;29;88187;-65
2022/07/10 13:28:57;;;;;;;4.38;1.08;;;24.00;55.00;;;;;;4852933;29;87645;-65
2022/07/10 13:31:23;;;;;;;1.83;0.73;;;24.10;58.00;;;;;;4847547;29;87254;-74
2022/07/10 13:33:49;;;;;;;4.05;0.63;;;24.10;53.40;;;;;;4857764;28;87764;-74
2022/07/10 13:36:15;;;;;;;1.45;0.85;;;24.20;53.10;;;;;;4855475;28;87085;-74
2022/07/10 13:38:42;;;;;;;2.08;0.82;;;24.10;53.80;;;;;;4861466;28;86187;-74
2022/07/10 13:41:08;;;;;;;1.60;0.70;;;24.00;53.00;;;;;;4859343;28;88157;-74
2022/07/10 13:43:34;;;;;;;1.92;0.80;;;24.00;51.20;;;;;;4859957;28;87593;-73
2022/07/10 13:46:01;;;;;;;1.92;0.63;;;24.00;57.30;;;;;;4863043;28;87874;-74
2022/07/10 13:48:29;;;;;;;1.30;0.73;;;24.10;56.10;;;;;;4856948;28;87034;-74
2022/07/10 13:50:55;;;;;;;1.50;0.60;;;24.10;56.70;;;;;;4857884;28;87827;-75
2022/07/10 13:53:21;;;;;;;1.65;0.85;;;24.10;51.90;;;;;;4859656;28;87717;-73
2022/07/10 13:55:47;;;;;;;1.80;0.80;;;24.10;56.20;;;;;;4859733;29;87125;-76
2022/07/10 13:58:14;;;;;;;2.92;0.70;;;24.20;56.00;;;;;;4858627;29;87302;-74
2022/07/10 14:00:40;;;;;;;4.35;0.93;;;24.30;55.60;;;;;;4860118;29;87452;-73
2022/07/10 14:03:07;;;;;;;2.28;0.80;;;24.30;55.70;;;;;;4857486;29;86367;-74
2022/07/10 14:05:33;;;;;;;2.20;0.77;;;24.30;54.70;;;;;;4857853;28;87043;-74
2022/07/10 14:08:00;;;;;;;1.40;0.63;;;24.40;52.80;;;;;;4854194;29;87429;-74
2022/07/10 14:10:26;;;;;;;3.03;1.02;;;24.30;51.10;;;;;;4851797;29;88129;-74
2022/07/10 14:12:55;;;;;;;1.95;0.82;;;24.30;53.60;;;;;;4853309;29;87862;-74
2022/07/10 14:15:21;;;;;;;2.20;0.90;;;24.30;53.50;;;;;;4855211;29;87367;-74
2022/07/10 14:17:48;;;;;;;2.20;0.70;;;24.40;51.60;;;;;;4852141;29;86611;-76
2022/07/10 14:20:14;;;;;;;2.25;0.88;;;24.10;52.80;;;;;;4858238;29;87486;-74
2022/07/10 14:22:40;;;;;;;2.45;0.75;;;24.10;56.50;;;;;;4855414;29;86833;-74
2022/07/10 14:25:08;;;;;;;1.20;0.73;;;24.10;55.30;;;;;;4852099;29;86941;-75
2022/07/10 14:27:34;;;;;;;1.83;0.77;;;24.00;57.60;;;;;;4857158;29;86332;-74
2022/07/10 14:30:00;;;;;;;2.10;1.13;;;24.10;55.50;;;;;;4856301;28;86864;-73
2022/07/10 14:32:25;;;;;;;1.65;0.68;;;24.20;52.80;;;;;;4854639;29;87117;-76
2022/07/10 14:34:51;;;;;;;3.65;1.08;;;24.30;53.10;;;;;;4853993;29;88121;-75
2022/07/10 14:37:17;;;;;;;1.92;0.90;;;24.20;54.30;;;;;;4855387;29;87722;-72
2022/07/10 14:39:45;;;;;;;3.47;0.82;;;24.30;57.20;;;;;;4857417;29;88624;-72
2022/07/10 14:42:12;;;;;;;2.78;0.75;;;24.40;55.60;;;;;;4854117;29;87234;-72
2022/07/10 14:44:37;;;;;;;1.65;0.47;;;24.50;55.60;;;;;;4857234;29;87136;-72
2022/07/10 14:47:04;;;;;;;2.60;0.73;;;24.40;53.30;;;;;;4857808;29;87356;-72
2022/07/10 14:49:29;;;;;;;1.30;0.55;;;24.40;54.70;;;;;;4854033;29;87143;-72
2022/07/10 14:51:55;;;;;;;2.28;1.00;;;24.40;53.20;;;;;;4858870;29;87866;-71
2022/07/10 14:54:21;;;;;;;1.63;0.88;;;24.50;55.80;;;;;;4853998;29;87548;-72
2022/07/10 14:56:47;;;;;;;1.75;0.68;;;24.40;51.30;;;;;;4859139;29;87369;-72
2022/07/10 14:59:13;;;;;;;2.55;0.63;;;24.50;51.70;;;;;;4855631;29;88100;-72
2022/07/10 15:01:38;;;;;;;1.50;0.63;;;24.60;55.00;;;;;;4857981;29;88747;-72
2022/07/10 15:04:04;;;;;;;3.72;0.75;;;24.60;50.40;;;;;;4855025;29;86865;-72
2022/07/10 15:06:30;;;;;;;5.30;0.75;;;24.70;48.80;;;;;;4852378;29;87014;-72
2022/07/10 15:08:56;;;;;;;0.93;0.43;;;24.60;51.00;;;;;;4856548;29;87149;-73
2022/07/10 15:11:23;;;;;;;1.77;0.55;;;24.60;48.10;;;;;;4857509;29;87993;-73
2022/07/10 15:13:50;;;;;;;1.67;0.73;;;24.40;49.60;;;;;;4852683;29;88925;-71
2022/07/10 15:16:17;;;;;;;1.90;0.63;;;24.30;49.50;;;;;;4858943;29;86253;-72
2022/07/10 15:18:42;;;;;;;2.40;0.65;;;24.40;53.00;;;;;;4858367;29;87701;-72
2022/07/10 15:21:08;;;;;;;0.90;0.50;;;24.80;52.50;;;;;;4851955;29;87189;-73
2022/07/10 15:23:34;;;;;;;3.10;0.57;;;25.00;49.00;;;;;;4851448;29;87999;-73
2022/07/10 15:26:00;;;;;;;2.95;0.60;;;25.30;49.30;;;;;;4856293;29;87380;-73
2022/07/10 15:28:26;;;;;;;1.85;0.93;;;25.30;53.70;;;;;;4857865;29;87234;-72
2022/07/10 15:30:52;;;;;;;1.73;0.70;;;25.40;53.10;;;;;;4857086;29;87268;-74
2022/07/10 15:33:18;;;;;;;2.47;0.73;;;25.70;46.70;;;;;;4857291;29;87140;-73
2022/07/10 15:35:43;;;;;;;1.45;0.85;;;25.70;47.80;;;;;;4857318;29;87306;-73
2022/07/10 15:38:11;;;;;;;1.50;0.70;;;25.70;47.20;;;;;;4856101;29;87161;-73
2022/07/10 15:40:36;;;;;;;2.03;0.43;;;25.80;47.90;;;;;;4852630;29;86934;-72
2022/07/10 15:43:02;;;;;;;3.97;0.75;;;25.70;49.20;;;;;;4856330;29;87073;-73
2022/07/10 15:45:28;;;;;;;1.30;0.73;;;25.80;47.20;;;;;;4857522;29;86991;-74
2022/07/10 15:47:54;;;;;;;3.60;0.63;;;25.60;50.00;;;;;;4858128;29;88130;-73
2022/07/10 15:50:20;;;;;;;1.20;0.73;;;25.50;52.80;;;;;;4849867;29;87151;-73
2022/07/10 15:52:46;;;;;;;2.03;0.60;;;25.60;51.10;;;;;;4858835;29;87216;-73
2022/07/10 15:55:13;;;;;;;2.20;1.10;;;25.50;49.90;;;;;;4858092;29;86956;-73
2022/07/10 15:57:39;;;;;;;1.80;0.60;;;25.60;49.00;;;;;;4858628;29;87703;-72
2022/07/10 16:00:08;;;;;;;1.40;0.77;;;25.70;49.50;;;;;;4858619;29;87637;-73
2022/07/10 16:02:35;;;;;;;1.27;0.63;;;25.60;49.60;;;;;;4856071;29;87135;-72
2022/07/10 16:05:02;;;;;;;1.95;0.90;;;25.60;51.00;;;;;;4853874;29;87020;-75
2022/07/10 16:07:28;;;;;;;3.22;0.82;;;25.40;50.90;;;;;;4856227;29;88602;-72
2022/07/10 16:09:54;;;;;;;2.20;1.13;;;25.30;51.40;;;;;;4860235;29;86978;-74
2022/07/10 16:12:19;;;;;;;5.50;0.93;;;25.40;52.00;;;;;;4854815;29;88212;-73
2022/07/10 16:14:45;;;;;;;1.40;0.65;;;25.50;52.00;;;;;;4849340;29;86975;-73
2022/07/10 16:17:11;;;;;;;1.40;0.57;;;25.30;52.70;;;;;;4853653;29;87158;-74
2022/07/10 16:19:37;;;;;;;1.65;1.10;;;25.20;52.60;;;;;;4860793;29;87158;-73
2022/07/10 16:22:02;;;;;;;4.57;0.88;;;25.30;52.50;;;;;;4859687;29;87335;-73
2022/07/10 16:24:28;;;;;;;2.08;0.85;;;25.20;53.40;;;;;;4859258;29;87223;-73
2022/07/10 16:26:54;;;;;;;3.08;0.82;;;25.20;52.80;;;;;;4855127;29;87542;-73
2022/07/10 16:29:24;;;;;;;1.55;0.90;;;25.20;51.40;;;;;;4856494;29;87899;-73
2022/07/10 16:31:53;;;;;;;2.40;0.90;;;25.30;51.90;;;;;;4855827;29;86879;-73
2022/07/10 16:34:19;;;;;;;1.70;0.80;;;25.30;51.60;;;;;;4862188;29;86696;-74
2022/07/10 16:36:46;;;;;;;3.08;0.93;;;25.30;54.00;;;;;;4862698;29;87940;-74
2022/07/10 16:39:11;;;;;;;3.08;0.60;;;25.20;54.60;;;;;;4859069;29;87119;-75
2022/07/10 16:41:37;;;;;;;1.35;0.73;;;25.10;56.20;;;;;;4864316;29;86320;-74
2022/07/10 16:44:03;;;;;;;3.00;0.88;;;25.00;55.10;;;;;;4864071;29;86666;-73
2022/07/10 16:46:29;;;;;;;2.10;1.05;;;24.80;55.40;;;;;;4863805;29;89178;-73
2022/07/10 16:48:54;;;;;;;2.35;0.88;;;24.80;55.80;;;;;;4855212;29;88201;-73
2022/07/10 16:51:22;;;;;;;3.45;0.95;;;24.80;54.70;;;;;;4861812;29;87192;-74
2022/07/10 16:53:48;;;;;;;1.92;1.05;;;24.90;55.80;;;;;;4863697;29;86046;-72
2022/07/10 16:56:14;;;;;;;2.47;0.85;;;24.90;55.00;;;;;;4860145;29;86885;-73
2022/07/10 16:58:40;;;;;;;2.45;0.70;;;24.80;54.60;;;;;;4861834;29;86761;-72